createdAt,value
2022-08-25T00:00:24.265Z,101379.84
2022-08-25T00:02:57.736Z,101371.19
2022-08-25T00:05:32.323Z,101369.28
2022-08-25T00:08:06.098Z,101366.00
2022-08-25T00:10:39.300Z,101366.88
2022-08-25T00:13:11.035Z,101369.78
2022-08-25T00:15:42.434Z,101375.25
2022-08-25T00:18:19.620Z,101363.81
2022-08-25T00:20:51.479Z,101373.81
2022-08-25T00:23:23.140Z,101381.06
2022-08-25T00:25:55.220Z,101363.34
2022-08-25T00:28:26.558Z,101372.38
2022-08-25T00:31:01.405Z,101368.16
2022-08-25T00:33:33.314Z,101367.28
2022-08-25T00:36:04.787Z,101373.69
2022-08-25T00:38:38.053Z,101369.53
2022-08-25T00:41:12.200Z,101370.41
2022-08-25T00:43:58.075Z,101377.69
2022-08-25T00:46:34.631Z,101363.84
2022-08-25T00:49:20.990Z,101367.41
2022-08-25T00:52:09.701Z,101365.88
2022-08-25T00:54:49.317Z,101361.50
2022-08-25T00:57:34.580Z,101369.94
2022-08-25T01:00:12.209Z,101368.19
2022-08-25T01:02:43.681Z,101365.69
2022-08-25T01:05:15.092Z,101367.53
2022-08-25T01:07:46.820Z,101368.59
2022-08-25T01:10:19.724Z,101366.88
2022-08-25T01:12:54.382Z,101368.78
2022-08-25T01:15:26.990Z,101367.16
2022-08-25T01:17:59.860Z,101368.19
2022-08-25T01:20:32.696Z,101363.81
2022-08-25T01:23:04.631Z,101356.94
2022-08-25T01:25:58.088Z,101360.50
2022-08-25T01:28:29.886Z,101374.97
2022-08-25T01:31:01.631Z,101363.47
2022-08-25T01:33:32.992Z,101368.09
2022-08-25T01:36:05.393Z,101370.97
2022-08-25T01:38:36.699Z,101371.19
2022-08-25T01:41:07.986Z,101372.13
2022-08-25T01:43:39.515Z,101379.47
2022-08-25T01:46:11.110Z,101371.66
2022-08-25T01:48:42.515Z,101376.09
2022-08-25T01:51:15.917Z,101382.47
2022-08-25T01:53:47.258Z,101387.03
2022-08-25T01:56:19.200Z,101380.78
2022-08-25T01:58:50.972Z,101382.66
2022-08-25T02:01:24.373Z,101377.34
2022-08-25T02:03:56.373Z,101385.56
2022-08-25T02:06:33.105Z,101372.16
2022-08-25T02:09:08.806Z,101373.97
2022-08-25T02:11:43.135Z,101380.31
2022-08-25T02:14:16.127Z,101371.63
2022-08-25T02:16:51.833Z,101380.44
2022-08-25T02:19:25.834Z,101377.81
2022-08-25T02:21:58.409Z,101353.03
2022-08-25T02:24:29.738Z,101374.25
2022-08-25T02:27:01.834Z,101370.69
2022-08-25T02:29:33.785Z,101363.47
2022-08-25T02:32:05.290Z,101360.13
2022-08-25T02:34:36.615Z,101366.25
2022-08-25T02:37:08.646Z,101370.81
2022-08-25T02:39:40.539Z,101367.31
2022-08-25T02:42:11.994Z,101374.50
2022-08-25T02:44:43.298Z,101372.88
2022-08-25T02:47:14.618Z,101369.19
2022-08-25T02:49:46.028Z,101371.94
2022-08-25T02:52:17.436Z,101363.06
2022-08-25T02:54:48.761Z,101361.31
2022-08-25T02:57:20.097Z,101350.94
2022-08-25T02:59:51.683Z,101365.13
2022-08-25T03:02:23.002Z,101368.81
2022-08-25T03:04:55.138Z,101370.69
2022-08-25T03:07:26.610Z,101369.88
2022-08-25T03:09:59.732Z,101370.94
2022-08-25T03:12:31.060Z,101377.34
2022-08-25T03:15:02.513Z,101376.53
2022-08-25T03:17:33.842Z,101381.25
2022-08-25T03:20:07.853Z,101376.00
2022-08-25T03:22:39.208Z,101373.50
2022-08-25T03:25:29.397Z,101366.63
2022-08-25T03:28:01.239Z,101363.06
2022-08-25T03:30:32.818Z,101364.13
2022-08-25T03:33:04.390Z,101356.13
2022-08-25T03:35:35.920Z,101353.63
2022-08-25T03:38:07.511Z,101351.00
2022-08-25T03:40:38.827Z,101349.44
2022-08-25T03:43:10.158Z,101347.69
2022-08-25T03:45:43.145Z,101345.94
2022-08-25T03:48:15.867Z,101348.66
2022-08-25T03:50:51.386Z,101347.78
2022-08-25T03:53:23.782Z,101335.41
2022-08-25T03:55:55.104Z,101339.78
2022-08-25T03:58:26.839Z,101340.66
2022-08-25T04:01:00.289Z,101330.09
2022-08-25T04:03:31.762Z,101346.00
2022-08-25T04:06:04.778Z,101330.81
2022-08-25T04:08:36.650Z,101334.44
2022-08-25T04:11:10.687Z,101334.31
2022-08-25T04:13:42.349Z,101340.56
2022-08-25T04:16:20.663Z,101336.94
2022-08-25T04:18:56.038Z,101340.56
2022-08-25T04:21:28.894Z,101336.06
2022-08-25T04:24:00.399Z,101345.06
2022-08-25T04:26:38.711Z,101345.88
2022-08-25T04:29:11.808Z,101346.69
2022-08-25T04:31:46.807Z,101344.88
2022-08-25T04:34:30.186Z,101352.94
2022-08-25T04:37:05.439Z,101356.44
2022-08-25T04:39:36.779Z,101360.94
2022-08-25T04:42:08.134Z,101369.63
2022-08-25T04:44:39.449Z,101366.06
2022-08-25T04:47:11.017Z,101370.31
2022-08-25T04:49:42.442Z,101372.81
2022-08-25T04:52:14.666Z,101376.31
2022-08-25T04:54:46.665Z,101359.28
2022-08-25T04:57:17.961Z,101365.28
2022-08-25T04:59:49.294Z,101364.22
2022-08-25T05:02:20.600Z,101362.19
2022-08-25T05:04:52.243Z,101352.19
2022-08-25T05:07:23.605Z,101342.13
2022-08-25T05:09:54.910Z,101333.19
2022-08-25T05:12:26.198Z,101318.03
2022-08-25T05:15:20.318Z,101327.16
2022-08-25T05:17:55.710Z,101332.28
2022-08-25T05:20:27.417Z,101328.63
2022-08-25T05:22:59.053Z,101338.13
2022-08-25T05:25:30.798Z,101338.75
2022-08-25T05:28:02.955Z,101328.72
2022-08-25T05:30:34.480Z,101345.34
2022-08-25T05:33:05.806Z,101340.56
2022-08-25T05:35:37.613Z,101331.47
2022-08-25T05:38:09.015Z,101348.06
2022-08-25T05:40:46.786Z,101342.41
2022-08-25T05:43:18.131Z,101340.38
2022-08-25T05:45:49.577Z,101335.94
2022-08-25T05:48:21.241Z,101352.38
2022-08-25T05:50:54.363Z,101342.84
2022-08-25T05:53:27.113Z,101345.94
2022-08-25T05:55:59.713Z,101343.19
2022-08-25T05:58:31.604Z,101351.78
2022-08-25T06:01:22.518Z,101351.81
2022-08-25T06:03:54.470Z,101350.19
2022-08-25T06:06:26.019Z,101337.22
2022-08-25T06:08:57.330Z,101340.19
2022-08-25T06:11:28.631Z,101335.78
2022-08-25T06:13:59.942Z,101333.66
2022-08-25T06:16:31.458Z,101332.19
2022-08-25T06:19:02.978Z,101328.22
2022-08-25T06:21:34.403Z,101341.16
2022-08-25T06:24:07.075Z,101329.81
2022-08-25T06:26:38.424Z,101332.81
2022-08-25T06:29:09.727Z,101333.19
2022-08-25T06:31:42.494Z,101330.41
2022-08-25T06:34:13.949Z,101331.00
2022-08-25T06:36:45.281Z,101329.56
2022-08-25T06:39:22.319Z,101325.13
2022-08-25T06:41:55.087Z,101330.91
2022-08-25T06:44:27.679Z,101328.53
2022-08-25T06:46:59.013Z,101337.78
2022-08-25T06:49:35.543Z,101324.72
2022-08-25T06:52:07.475Z,101345.81
2022-08-25T06:54:39.224Z,101339.19
2022-08-25T06:57:10.619Z,101347.75
2022-08-25T06:59:42.214Z,101358.16
2022-08-25T07:02:14.697Z,101351.38
2022-08-25T07:04:53.624Z,101357.31
2022-08-25T07:07:25.188Z,101346.72
2022-08-25T07:10:14.609Z,101343.59
2022-08-25T07:12:51.750Z,101342.84
2022-08-25T07:15:23.468Z,101340.81
2022-08-25T07:17:57.313Z,101343.16
2022-08-25T07:20:29.459Z,101337.91
2022-08-25T07:23:02.301Z,101340.88
2022-08-25T07:25:35.366Z,101335.56
2022-08-25T07:28:06.675Z,101336.25
2022-08-25T07:30:40.724Z,101335.47
2022-08-25T07:33:12.912Z,101348.94
2022-08-25T07:35:45.875Z,101347.88
2022-08-25T07:38:20.812Z,101345.34
2022-08-25T07:40:55.372Z,101339.63
2022-08-25T07:43:28.678Z,101344.38
2022-08-25T07:46:00.202Z,101353.06
2022-08-25T07:48:31.512Z,101355.28
2022-08-25T07:51:11.859Z,101355.38
2022-08-25T07:53:43.250Z,101362.16
2022-08-25T07:56:16.683Z,101353.56
2022-08-25T07:58:48.148Z,101364.28
2022-08-25T08:01:22.422Z,101349.63
2022-08-25T08:03:53.959Z,101358.59
2022-08-25T08:06:25.503Z,101359.06
2022-08-25T08:08:57.992Z,101351.72
2022-08-25T08:11:37.094Z,101346.06
2022-08-25T08:14:08.397Z,101358.69
2022-08-25T08:16:40.008Z,101371.03
2022-08-25T08:19:13.394Z,101365.16
2022-08-25T08:21:46.626Z,101363.59
2022-08-25T08:24:38.404Z,101367.41
2022-08-25T08:27:10.963Z,101360.78
2022-08-25T08:29:42.513Z,101353.66
2022-08-25T08:32:14.592Z,101367.75
2022-08-25T08:34:51.413Z,101360.69
2022-08-25T08:37:23.622Z,101364.28
2022-08-25T08:39:55.198Z,101360.03
2022-08-25T08:42:46.997Z,101354.13
2022-08-25T08:45:43.928Z,101353.03
2022-08-25T08:48:33.579Z,101354.38
2022-08-25T08:51:24.551Z,101346.56
2022-08-25T08:54:01.760Z,101342.88
2022-08-25T08:56:38.698Z,101333.53
2022-08-25T08:59:21.850Z,101328.97
2022-08-25T09:01:59.353Z,101333.00
2022-08-25T09:04:41.542Z,101340.28
2022-08-25T09:07:21.715Z,101338.84
2022-08-25T09:09:53.960Z,101337.47
2022-08-25T09:12:40.799Z,101343.22
2022-08-25T09:16:20.672Z,101337.06
2022-08-25T09:19:32.073Z,101334.41
2022-08-25T09:22:37.492Z,101340.03
2022-08-25T09:25:34.604Z,101340.59
2022-08-25T09:28:19.717Z,101336.31
2022-08-25T09:30:57.832Z,101344.59
2022-08-25T09:33:35.355Z,101340.16
2022-08-25T09:36:09.028Z,101345.94
2022-08-25T09:38:41.195Z,101331.38
2022-08-25T09:41:16.518Z,101338.06
2022-08-25T09:43:54.541Z,101336.69
2022-08-25T09:46:28.933Z,101324.53
2022-08-25T09:49:16.761Z,101319.75
2022-08-25T09:51:48.316Z,101326.72
2022-08-25T09:54:44.384Z,101315.84
2022-08-25T09:57:49.072Z,101298.09
2022-08-25T10:00:33.515Z,101307.94
2022-08-25T10:03:15.362Z,101297.63
2022-08-25T10:06:01.735Z,101305.91
2022-08-25T10:08:40.724Z,101320.25
2022-08-25T10:11:28.904Z,101317.22
2022-08-25T10:14:04.515Z,101308.00
2022-08-25T10:16:36.355Z,101313.53
2022-08-25T10:19:11.617Z,101304.63
2022-08-25T10:21:43.666Z,101300.94
2022-08-25T10:24:16.150Z,101303.97
2022-08-25T10:27:05.822Z,101307.25
2022-08-25T10:30:14.482Z,101298.16
2022-08-25T10:32:51.905Z,101300.31
2022-08-25T10:35:41.131Z,101280.94
2022-08-25T10:38:43.045Z,101278.44
2022-08-25T10:41:39.378Z,101277.38
2022-08-25T10:44:53.067Z,101271.16
2022-08-25T10:47:42.871Z,101265.81
2022-08-25T10:50:36.693Z,101261.81
2022-08-25T10:53:17.954Z,101263.50
2022-08-25T10:55:55.109Z,101248.16
2022-08-25T10:58:44.721Z,101252.25
2022-08-25T11:01:44.065Z,101246.81
2022-08-25T11:04:26.048Z,101239.88
2022-08-25T11:07:04.106Z,101232.22
2022-08-25T11:09:42.953Z,101227.06
2022-08-25T11:12:32.918Z,101215.97
2022-08-25T11:15:29.174Z,101204.84
2022-08-25T11:18:14.436Z,101211.56
2022-08-25T11:20:59.179Z,101207.25
2022-08-25T11:23:42.407Z,101204.72
2022-08-25T11:26:20.064Z,101203.47
2022-08-25T11:28:58.784Z,101195.19
2022-08-25T11:31:30.907Z,101195.31
2022-08-25T11:34:02.626Z,101204.00
2022-08-25T11:36:37.720Z,101194.13
2022-08-25T11:39:34.603Z,101190.13
2022-08-25T11:42:20.446Z,101186.28
2022-08-25T11:44:58.521Z,101194.34
2022-08-25T11:47:51.115Z,101182.94
2022-08-25T11:50:33.312Z,101189.63
2022-08-25T11:53:12.605Z,101178.47
2022-08-25T11:55:43.841Z,101178.06
2022-08-25T11:58:37.261Z,101172.25
2022-08-25T12:01:28.555Z,101163.41
2022-08-25T12:04:13.354Z,101165.22
2022-08-25T12:07:05.579Z,101156.03
2022-08-25T12:10:03.823Z,101158.22
2022-08-25T12:12:56.645Z,101149.25
2022-08-25T12:15:32.982Z,101163.84
2022-08-25T12:18:13.601Z,101151.88
2022-08-25T12:20:52.596Z,101145.94
2022-08-25T12:24:02.243Z,101146.63
2022-08-25T12:26:46.041Z,101152.44
2022-08-25T12:47:23.796Z,101130.81
2022-08-25T12:50:25.901Z,101130.41
2022-08-25T12:53:07.310Z,101123.75
2022-08-25T12:55:46.559Z,101108.69
2022-08-25T12:58:18.088Z,101115.72
2022-08-25T13:01:29.318Z,101107.59
2022-08-25T13:04:26.673Z,101098.69
2022-08-25T13:07:17.890Z,101095.66
2022-08-25T13:09:51.970Z,101096.38
2022-08-25T13:12:51.199Z,101097.84
2022-08-25T13:15:44.441Z,101065.47
2022-08-25T13:18:25.581Z,101075.03
2022-08-25T13:21:07.180Z,101078.53
2022-08-25T13:23:42.996Z,101075.25
2022-08-25T13:26:21.246Z,101052.63
2022-08-25T13:29:14.333Z,101059.28
2022-08-25T13:31:57.958Z,101063.34
2022-08-25T13:34:35.798Z,101022.16
2022-08-25T13:37:29.811Z,101060.66
2022-08-25T13:40:11.687Z,101041.06
2022-08-25T13:42:51.771Z,101048.66
2022-08-25T13:45:31.630Z,101049.84
2022-08-25T13:48:04.093Z,101057.34
2022-08-25T13:50:40.810Z,101054.59
2022-08-25T13:53:21.470Z,101048.97
2022-08-25T13:55:58.502Z,101049.13
2022-08-25T13:58:44.771Z,101056.44
2022-08-25T14:01:47.665Z,101055.13
2022-08-25T14:04:25.998Z,101060.03
2022-08-25T14:07:21.141Z,101044.84
2022-08-25T14:10:09.389Z,101034.47
2022-08-25T14:12:47.016Z,101036.34
2022-08-25T14:15:18.336Z,101037.31
2022-08-25T14:18:01.968Z,101017.69
2022-08-25T14:20:34.778Z,101018.94
2022-08-25T14:23:09.862Z,101006.31
2022-08-25T14:25:42.351Z,101019.69
2022-08-25T14:28:19.068Z,101018.72
2022-08-25T14:30:56.183Z,101011.97
2022-08-25T14:33:35.085Z,100979.38
2022-08-25T14:36:06.879Z,101010.84
2022-08-25T14:38:39.046Z,101017.59
2022-08-25T14:41:12.831Z,101010.69
2022-08-25T14:43:44.140Z,100980.00
2022-08-25T14:46:24.281Z,100993.09
2022-08-25T14:49:01.477Z,100977.41
2022-08-25T14:51:36.195Z,100969.06
2022-08-25T14:54:13.104Z,100983.72
2022-08-25T14:56:46.696Z,100976.25
2022-08-25T14:59:18.592Z,100975.69
2022-08-25T15:01:50.275Z,100951.81
2022-08-25T15:04:27.389Z,100978.31
2022-08-25T15:07:00.981Z,100967.34
2022-08-25T15:09:34.281Z,100973.13
2022-08-25T15:12:05.728Z,100947.25
2022-08-25T15:14:39.734Z,100961.59
2022-08-25T15:17:13.966Z,100959.16
2022-08-25T15:19:46.329Z,100965.66
2022-08-25T15:22:19.483Z,100935.72
2022-08-25T15:24:50.855Z,100951.41
2022-08-25T15:27:24.416Z,100950.84
2022-08-25T15:30:02.756Z,100926.50
2022-08-25T15:32:34.275Z,100952.72
2022-08-25T15:35:06.857Z,100945.38
2022-08-25T15:37:39.026Z,100941.22
2022-08-25T15:40:11.959Z,100940.03
2022-08-25T15:42:45.925Z,100938.88
2022-08-25T15:45:18.509Z,100939.19
2022-08-25T15:47:53.951Z,100939.19
2022-08-25T15:50:26.784Z,100930.97
2022-08-25T15:52:58.110Z,100928.81
2022-08-25T15:55:29.484Z,100899.75
2022-08-25T15:58:00.793Z,100922.06
2022-08-25T16:00:32.260Z,100923.94
2022-08-25T16:03:04.161Z,100917.75
2022-08-25T16:05:37.503Z,100910.84
2022-08-25T16:08:19.124Z,100907.97
2022-08-25T16:10:50.908Z,100914.44
2022-08-25T16:13:23.485Z,100899.56
2022-08-25T16:15:55.086Z,100915.25
2022-08-25T16:18:26.840Z,100897.41
2022-08-25T16:20:58.852Z,100915.25
2022-08-25T16:23:30.353Z,100903.00
2022-08-25T16:26:05.264Z,100901.28
2022-08-25T16:28:43.730Z,100901.44
2022-08-25T16:31:16.973Z,100900.88
2022-08-25T16:33:48.852Z,100901.44
2022-08-25T16:36:23.517Z,100897.41
2022-08-25T16:38:56.387Z,100898.97
2022-08-25T16:41:33.989Z,100885.88
2022-08-25T16:44:07.747Z,100876.47
2022-08-25T16:46:44.155Z,100896.75
2022-08-25T16:49:16.060Z,100889.84
2022-08-25T16:51:47.471Z,100883.78
2022-08-25T16:54:41.933Z,100882.47
2022-08-25T16:57:13.652Z,100879.44
2022-08-25T16:59:44.977Z,100880.13
2022-08-25T17:02:16.575Z,100877.09
2022-08-25T17:04:49.964Z,100854.31
2022-08-25T17:07:23.687Z,100857.41
2022-08-25T17:09:57.951Z,100854.53
2022-08-25T17:12:29.366Z,100878.47
2022-08-25T17:15:01.085Z,100887.78
2022-08-25T17:17:35.893Z,100869.19
2022-08-25T17:20:07.690Z,100873.78
2022-08-25T17:22:39.208Z,100887.84
2022-08-25T17:25:10.706Z,100885.69
2022-08-25T17:27:42.121Z,100874.31
2022-08-25T17:30:14.300Z,100879.16
2022-08-25T17:32:46.249Z,100884.03
2022-08-25T17:35:22.862Z,100883.69
2022-08-25T17:37:55.047Z,100883.09
2022-08-25T17:40:26.710Z,100892.81
2022-08-25T17:42:58.496Z,100892.22
2022-08-25T17:45:30.381Z,100890.88
2022-08-25T17:48:02.813Z,100886.97
2022-08-25T17:50:36.495Z,100870.22
2022-08-25T17:53:09.467Z,100883.25
2022-08-25T17:55:42.280Z,100862.28
2022-08-25T17:58:17.123Z,100879.00
2022-08-25T18:00:49.208Z,100892.16
2022-08-25T18:03:20.630Z,100874.75
2022-08-25T18:05:52.320Z,100895.03
2022-08-25T18:08:29.909Z,100895.56
2022-08-25T18:11:08.484Z,100898.06
2022-08-25T18:13:42.432Z,100893.28
2022-08-25T18:16:14.773Z,100892.16
2022-08-25T18:18:46.347Z,100892.91
2022-08-25T18:21:20.282Z,100875.84
2022-08-25T18:23:51.918Z,100894.31
2022-08-25T18:26:25.561Z,100891.22
2022-08-25T18:28:57.048Z,100879.22
2022-08-25T18:31:28.467Z,100896.19
2022-08-25T18:33:59.809Z,100844.69
2022-08-25T18:36:32.299Z,100884.00
2022-08-25T18:39:34.056Z,100887.59
2022-08-25T18:42:06.799Z,100885.72
2022-08-25T18:44:38.269Z,100868.19
2022-08-25T18:47:09.597Z,100887.72
2022-08-25T18:49:41.013Z,100891.03
2022-08-25T18:52:12.649Z,100889.91
2022-08-25T18:54:44.361Z,100889.41
2022-08-25T18:57:16.250Z,100890.50
2022-08-25T18:59:47.654Z,100888.22
2022-08-25T19:02:19.490Z,100895.00
2022-08-25T19:04:53.202Z,100864.91
2022-08-25T19:07:25.311Z,100896.69
2022-08-25T19:09:56.713Z,100894.69
2022-08-25T19:12:28.424Z,100896.25
2022-08-25T19:15:00.594Z,100884.97
2022-08-25T19:17:37.804Z,100863.13
2022-08-25T19:20:11.024Z,100869.44
2022-08-25T19:22:42.919Z,100887.13
2022-08-25T19:25:15.794Z,100891.16
2022-08-25T19:27:58.728Z,100827.00
2022-08-25T19:30:34.303Z,100885.66
2022-08-25T19:33:11.540Z,100892.94
2022-08-25T19:35:49.781Z,100866.28
2022-08-25T19:38:33.561Z,100880.16
2022-08-25T19:41:09.409Z,100888.53
2022-08-25T19:43:55.549Z,100888.88
2022-08-25T19:46:35.245Z,100868.28
2022-08-25T19:49:20.963Z,100867.75
2022-08-25T19:51:54.399Z,100858.31
2022-08-25T19:54:29.716Z,100861.25
2022-08-25T19:57:03.121Z,100885.00
2022-08-25T19:59:43.183Z,100889.69
2022-08-25T20:02:18.468Z,100890.97
2022-08-25T20:04:52.710Z,100882.19
2022-08-25T20:07:27.947Z,100878.72
2022-08-25T20:10:00.444Z,100858.31
2022-08-25T20:12:31.920Z,100882.81
2022-08-25T20:15:05.328Z,100883.03
2022-08-25T20:17:42.486Z,100889.66
2022-08-25T20:20:25.876Z,100894.34
2022-08-25T20:23:30.487Z,100903.56
2022-08-25T20:26:04.754Z,100885.78
2022-08-25T20:28:42.214Z,100869.84
2022-08-25T20:31:16.128Z,100893.47
2022-08-25T20:33:47.828Z,100899.09
2022-08-25T20:36:20.899Z,100898.25
2022-08-25T20:38:52.450Z,100890.03
2022-08-25T20:41:24.157Z,100896.22
2022-08-25T20:43:56.501Z,100895.56
2022-08-25T20:46:29.048Z,100900.00
2022-08-25T20:49:01.804Z,100899.34
2022-08-25T20:51:34.588Z,100893.69
2022-08-25T20:54:06.488Z,100893.69
2022-08-25T20:56:38.064Z,100894.13
2022-08-25T20:59:11.661Z,100883.50
2022-08-25T21:01:43.461Z,100882.84
2022-08-25T21:04:17.827Z,100884.69
2022-08-25T21:06:50.120Z,100883.16
2022-08-25T21:09:23.859Z,100885.00
2022-08-25T21:11:57.533Z,100874.75
2022-08-25T21:14:29.303Z,100883.75
2022-08-25T21:17:01.006Z,100859.66
2022-08-25T21:19:33.640Z,100885.69
2022-08-25T21:22:05.236Z,100856.28
2022-08-25T21:24:37.649Z,100883.63
2022-08-25T21:27:11.873Z,100869.19
2022-08-25T21:29:44.691Z,100893.59
2022-08-25T21:32:26.595Z,100864.38
2022-08-25T21:34:58.491Z,100900.50
2022-08-25T21:37:30.362Z,100895.50
2022-08-25T21:40:02.136Z,100902.84
2022-08-25T21:42:34.576Z,100901.22
2022-08-25T21:45:11.357Z,100895.91
2022-08-25T21:47:43.249Z,100891.47
2022-08-25T21:50:14.678Z,100896.56
2022-08-25T21:52:46.083Z,100857.75
2022-08-25T21:55:17.691Z,100892.47
2022-08-25T21:57:49.681Z,100879.44
2022-08-25T22:00:23.179Z,100892.81
2022-08-25T22:02:54.778Z,100869.94
2022-08-25T22:05:27.366Z,100857.16
2022-08-25T22:07:58.810Z,100884.06
2022-08-25T22:10:30.217Z,100884.72
2022-08-25T22:13:02.660Z,100884.53
2022-08-25T22:15:34.161Z,100848.84
2022-08-25T22:18:05.744Z,100881.59
2022-08-25T22:20:39.170Z,100868.59
2022-08-25T22:23:20.343Z,100880.72
2022-08-25T22:25:52.038Z,100828.34
2022-08-25T22:28:24.048Z,100864.78
2022-08-25T22:30:55.868Z,100841.69
2022-08-25T22:33:27.360Z,100864.34
2022-08-25T22:36:00.053Z,100861.94
2022-08-25T22:38:31.547Z,100874.53
2022-08-25T22:41:02.942Z,100846.97
2022-08-25T22:43:34.825Z,100847.38
2022-08-25T22:46:07.643Z,100861.38
2022-08-25T22:48:44.539Z,100872.09
2022-08-25T22:51:20.999Z,100858.19
2022-08-25T22:53:53.793Z,100870.00
2022-08-25T22:56:30.770Z,100855.16
2022-08-25T22:59:08.628Z,100848.09
2022-08-25T23:01:41.055Z,100830.09
2022-08-25T23:04:14.681Z,100838.97
2022-08-25T23:06:47.195Z,100857.09
2022-08-25T23:09:18.698Z,100863.47
2022-08-25T23:11:51.266Z,100858.25
2022-08-25T23:14:23.132Z,100829.75
2022-08-25T23:16:54.486Z,100861.38
2022-08-25T23:19:28.157Z,100847.31
2022-08-25T23:22:13.457Z,100853.47
2022-08-25T23:24:49.610Z,100849.25
2022-08-25T23:27:21.845Z,100857.47
2022-08-25T23:29:53.453Z,100812.41
2022-08-25T23:32:25.604Z,100849.81
2022-08-25T23:34:59.511Z,100834.19
2022-08-25T23:37:31.590Z,100836.81
2022-08-25T23:40:05.677Z,100817.91
2022-08-25T23:42:38.918Z,100822.25
2022-08-25T23:45:15.402Z,100815.91
2022-08-25T23:47:46.708Z,100809.63
2022-08-25T23:50:21.781Z,100827.19
2022-08-25T23:52:53.885Z,100806.44
2022-08-25T23:55:25.189Z,100830.88
2022-08-25T23:57:56.994Z,100824.78
